createdAt,value
2018-04-13T00:00:23.343Z,67.06
2018-04-13T00:01:26.838Z,67.09
2018-04-13T00:02:29.902Z,67.13
2018-04-13T00:03:33.030Z,67.19
2018-04-13T00:04:36.081Z,67.25
2018-04-13T00:05:39.190Z,67.31
2018-04-13T00:06:42.271Z,67.34
2018-04-13T00:07:45.422Z,67.39
2018-04-13T00:08:48.464Z,67.44
2018-04-13T00:09:51.540Z,67.50
2018-04-13T00:10:54.635Z,67.57
2018-04-13T00:11:57.682Z,67.66
2018-04-13T00:13:00.835Z,67.79
2018-04-13T00:14:03.866Z,67.91
2018-04-13T00:15:07.083Z,68.02
2018-04-13T00:16:10.625Z,68.11
2018-04-13T00:17:13.644Z,68.18
2018-04-13T00:18:16.752Z,68.30
2018-04-13T00:19:19.832Z,68.37
2018-04-13T00:20:22.886Z,68.45
2018-04-13T00:21:25.934Z,68.52
2018-04-13T00:22:28.965Z,68.58
2018-04-13T00:23:32.043Z,68.66
2018-04-13T00:24:35.121Z,68.71
2018-04-13T00:25:38.247Z,68.74
2018-04-13T00:26:41.282Z,68.81
2018-04-13T00:27:44.324Z,68.87
2018-04-13T00:28:47.438Z,68.94
2018-04-13T00:29:50.900Z,69.00
2018-04-13T00:30:54.007Z,69.02
2018-04-13T00:31:57.036Z,69.07
2018-04-13T00:33:00.112Z,69.10
2018-04-13T00:34:03.259Z,69.15
2018-04-13T00:35:06.292Z,69.20
2018-04-13T00:36:09.332Z,69.23
2018-04-13T00:37:12.426Z,69.26
2018-04-13T00:38:15.479Z,69.29
2018-04-13T00:39:18.632Z,69.31
2018-04-13T00:40:21.787Z,69.33
2018-04-13T00:41:24.837Z,69.36
2018-04-13T00:42:27.867Z,69.39
2018-04-13T00:43:30.895Z,69.44
2018-04-13T00:44:34.602Z,69.46
2018-04-13T00:45:37.834Z,69.53
2018-04-13T00:46:40.931Z,69.57
2018-04-13T00:47:44.024Z,69.64
2018-04-13T00:48:47.055Z,69.69
2018-04-13T00:49:50.133Z,69.76
2018-04-13T00:50:53.367Z,69.81
2018-04-13T00:51:56.696Z,69.83
2018-04-13T00:53:11.463Z,69.87
2018-04-13T00:54:14.546Z,69.92
2018-04-13T00:55:17.635Z,69.94
2018-04-13T00:56:20.665Z,69.93
2018-04-13T00:57:23.815Z,69.96
2018-04-13T00:58:26.930Z,69.98
2018-04-13T00:59:30.009Z,69.96
2018-04-13T01:00:33.141Z,70.00
2018-04-13T01:01:36.195Z,70.06
2018-04-13T01:02:39.271Z,70.10
2018-04-13T01:03:42.443Z,70.14
2018-04-13T01:04:45.535Z,70.15
2018-04-13T01:05:48.615Z,70.21
2018-04-13T01:06:51.894Z,70.28
2018-04-13T01:07:54.999Z,70.32
2018-04-13T01:08:58.112Z,70.36
2018-04-13T01:10:01.146Z,70.41
2018-04-13T01:11:04.312Z,70.49
2018-04-13T01:12:07.422Z,70.58
2018-04-13T01:13:10.610Z,70.65
2018-04-13T01:14:13.737Z,70.76
2018-04-13T01:15:16.828Z,70.84
2018-04-13T01:16:19.932Z,70.95
2018-04-13T01:17:23.081Z,71.06
2018-04-13T01:18:26.359Z,71.18
2018-04-13T01:19:29.669Z,71.31
2018-04-13T01:20:32.726Z,71.39
2018-04-13T01:21:35.784Z,71.46
2018-04-13T01:22:38.862Z,71.54
2018-04-13T01:23:41.908Z,71.58
2018-04-13T01:24:45.019Z,71.64
2018-04-13T01:25:48.058Z,71.70
2018-04-13T01:26:51.149Z,71.76
2018-04-13T01:27:54.478Z,71.81
2018-04-13T01:28:57.577Z,71.86
2018-04-13T01:30:00.714Z,71.89
2018-04-13T01:31:03.869Z,71.94
2018-04-13T01:32:07.418Z,71.85
2018-04-13T01:33:10.467Z,71.79
2018-04-13T01:34:13.762Z,71.74
2018-04-13T01:35:16.958Z,71.74
2018-04-13T01:36:20.020Z,71.77
2018-04-13T01:37:23.145Z,71.78
2018-04-13T01:38:26.462Z,71.77
2018-04-13T01:39:29.553Z,71.69
2018-04-13T01:40:32.611Z,71.67
2018-04-13T01:41:35.706Z,71.67
2018-04-13T01:42:39.035Z,71.66
2018-04-13T01:43:42.087Z,71.69
2018-04-13T01:44:45.343Z,71.71
2018-04-13T01:45:48.528Z,71.75
2018-04-13T01:46:51.839Z,71.79
2018-04-13T01:47:55.002Z,71.83
2018-04-13T01:48:58.049Z,71.84
2018-04-13T01:50:01.147Z,71.85
2018-04-13T01:51:04.501Z,71.86
2018-04-13T01:52:07.579Z,71.88
2018-04-13T01:53:10.671Z,71.90
2018-04-13T01:54:13.804Z,71.92
2018-04-13T01:55:17.232Z,71.94
2018-04-13T01:56:20.305Z,71.96
2018-04-13T01:57:23.345Z,71.96
2018-04-13T01:58:26.680Z,71.94
2018-04-13T01:59:29.753Z,71.99
2018-04-13T02:00:32.813Z,72.02
2018-04-13T02:01:36.192Z,72.04
2018-04-13T02:02:39.226Z,72.09
2018-04-13T02:03:42.304Z,72.14
2018-04-13T02:04:45.365Z,72.17
2018-04-13T02:05:48.473Z,72.20
2018-04-13T02:06:51.534Z,72.24
2018-04-13T02:07:54.648Z,72.25
2018-04-13T02:08:57.794Z,72.24
2018-04-13T02:10:00.827Z,72.27
2018-04-13T02:11:03.995Z,72.29
2018-04-13T02:12:07.066Z,72.32
2018-04-13T02:13:10.171Z,72.34
2018-04-13T02:14:13.679Z,72.38
2018-04-13T02:15:16.920Z,72.43
2018-04-13T02:16:20.168Z,72.49
2018-04-13T02:17:23.258Z,72.56
2018-04-13T02:18:26.779Z,72.64
2018-04-13T02:19:29.820Z,72.71
2018-04-13T02:20:32.922Z,72.78
2018-04-13T02:21:36.228Z,72.85
2018-04-13T02:22:39.326Z,72.91
2018-04-13T02:23:42.369Z,72.95
2018-04-13T02:24:45.452Z,73.00
2018-04-13T02:25:48.561Z,73.07
2018-04-13T02:26:51.610Z,73.12
2018-04-13T02:27:54.731Z,73.20
2018-04-13T02:28:57.979Z,73.24
2018-04-13T02:30:01.074Z,73.30
2018-04-13T02:31:04.135Z,73.34
2018-04-13T02:32:07.275Z,73.39
2018-04-13T02:33:10.439Z,73.43
2018-04-13T02:34:13.729Z,73.47
2018-04-13T02:35:16.843Z,73.50
2018-04-13T02:36:19.899Z,73.54
2018-04-13T02:37:22.973Z,73.55
2018-04-13T02:38:26.251Z,73.56
2018-04-13T02:39:29.293Z,73.59
2018-04-13T02:40:32.370Z,73.62
2018-04-13T02:41:35.422Z,73.65
2018-04-13T02:42:39.024Z,73.70
2018-04-13T02:43:42.292Z,73.73
2018-04-13T02:44:45.347Z,73.76
2018-04-13T02:45:48.767Z,73.77
2018-04-13T02:46:51.846Z,73.80
2018-04-13T02:47:54.943Z,73.83
2018-04-13T02:48:58.014Z,73.85
2018-04-13T02:50:01.097Z,73.87
2018-04-13T02:51:04.372Z,73.87
2018-04-13T02:52:07.457Z,73.85
2018-04-13T02:53:10.502Z,73.83
2018-04-13T02:54:13.588Z,73.83
2018-04-13T02:55:16.702Z,73.84
2018-04-13T02:57:29.064Z,73.91
2018-04-13T02:58:32.127Z,73.89
2018-04-13T02:59:35.186Z,73.88
2018-04-13T03:00:38.647Z,73.88
2018-04-13T03:01:41.762Z,73.84
2018-04-13T03:02:45.079Z,73.82
2018-04-13T03:03:48.186Z,73.78
2018-04-13T03:04:51.239Z,73.76
2018-04-13T03:05:54.415Z,73.76
2018-04-13T03:06:57.521Z,73.76
2018-04-13T03:08:00.624Z,73.75
2018-04-13T03:09:03.696Z,73.74
2018-04-13T03:10:06.805Z,73.75
2018-04-13T03:11:09.903Z,73.74
2018-04-13T03:12:12.994Z,73.75
2018-04-13T03:13:16.044Z,73.76
2018-04-13T03:14:19.152Z,73.77
2018-04-13T03:15:22.290Z,73.78
2018-04-13T03:16:25.335Z,73.81
2018-04-13T03:17:28.393Z,73.82
2018-04-13T03:18:31.456Z,73.84
2018-04-13T03:19:34.555Z,73.82
2018-04-13T03:20:37.585Z,73.79
2018-04-13T03:21:40.718Z,73.79
2018-04-13T03:22:44.127Z,73.82
2018-04-13T03:23:47.254Z,73.84
2018-04-13T03:24:50.295Z,73.85
2018-04-13T03:25:53.373Z,73.87
2018-04-13T03:26:56.712Z,73.89
2018-04-13T03:27:59.868Z,73.91
2018-04-13T03:29:02.898Z,73.89
2018-04-13T03:30:06.266Z,73.91
2018-04-13T03:31:09.411Z,73.92
2018-04-13T03:32:12.502Z,73.92
2018-04-13T03:33:15.705Z,73.93
2018-04-13T03:34:18.783Z,73.93
2018-04-13T03:35:22.061Z,73.90
2018-04-13T03:36:25.113Z,73.90
2018-04-13T03:37:28.158Z,73.89
2018-04-13T03:38:31.235Z,73.90
2018-04-13T03:39:34.618Z,73.91
2018-04-13T03:40:37.663Z,73.92
2018-04-13T03:41:40.710Z,73.96
2018-04-13T03:42:43.777Z,73.98
2018-04-13T03:43:46.842Z,74.00
2018-04-13T03:44:49.894Z,74.03
2018-04-13T03:45:53.027Z,74.08
2018-04-13T03:46:56.126Z,74.14
2018-04-13T03:47:59.208Z,74.21
2018-04-13T03:49:02.287Z,74.24
2018-04-13T03:50:05.473Z,74.24
2018-04-13T03:51:09.479Z,74.22
2018-04-13T03:52:12.792Z,74.25
2018-04-13T03:53:15.964Z,74.26
2018-04-13T03:54:19.312Z,74.26
2018-04-13T03:55:22.821Z,74.27
2018-04-13T03:56:25.879Z,74.30
2018-04-13T03:57:29.037Z,74.32
2018-04-13T03:58:32.130Z,74.32
2018-04-13T03:59:35.218Z,74.33
2018-04-13T04:00:38.279Z,74.40
2018-04-13T04:01:41.368Z,74.44
2018-04-13T04:02:44.434Z,74.48
2018-04-13T04:03:47.533Z,74.54
2018-04-13T04:04:50.600Z,74.57
2018-04-13T04:05:53.831Z,74.61
2018-04-13T04:06:56.906Z,74.62
2018-04-13T04:07:59.964Z,74.63
2018-04-13T04:09:03.055Z,74.64
2018-04-13T04:10:06.238Z,74.64
2018-04-13T04:11:09.292Z,74.66
2018-04-13T04:12:12.397Z,74.68
2018-04-13T04:13:15.520Z,74.69
2018-04-13T04:14:18.581Z,74.72
2018-04-13T04:15:21.675Z,74.75
2018-04-13T04:16:24.758Z,74.80
2018-04-13T04:17:27.875Z,74.83
2018-04-13T04:18:31.255Z,74.85
2018-04-13T04:19:45.935Z,74.89
2018-04-13T04:21:00.762Z,75.01
2018-04-13T04:22:15.618Z,75.12
2018-04-13T04:23:30.515Z,75.21
2018-04-13T04:24:45.626Z,75.26
2018-04-13T04:26:00.352Z,75.29
2018-04-13T04:27:03.406Z,75.30
2018-04-13T04:28:06.450Z,75.25
2018-04-13T04:29:09.563Z,75.19
2018-04-13T04:30:12.638Z,75.13
2018-04-13T04:31:15.996Z,75.10
2018-04-13T04:32:19.083Z,75.09
2018-04-13T04:33:22.133Z,75.09
2018-04-13T04:34:25.287Z,75.13
2018-04-13T04:35:28.346Z,75.25
2018-04-13T04:36:31.456Z,75.39
2018-04-13T04:37:34.610Z,75.48
2018-04-13T04:38:37.681Z,75.54
2018-04-13T04:39:40.722Z,75.55
2018-04-13T04:40:43.770Z,75.57
2018-04-13T04:41:46.846Z,75.58
2018-04-13T04:42:49.944Z,75.58
2018-04-13T04:43:53.068Z,75.62
2018-04-13T04:44:56.223Z,75.64
2018-04-13T04:45:59.258Z,75.64
2018-04-13T04:47:02.350Z,75.60
2018-04-13T04:48:05.444Z,75.59
2018-04-13T04:49:08.487Z,75.59
2018-04-13T04:50:11.526Z,75.59
2018-04-13T04:51:14.810Z,75.58
2018-04-13T04:52:17.923Z,75.59
2018-04-13T04:53:21.041Z,75.59
2018-04-13T04:54:24.588Z,75.61
2018-04-13T04:55:27.722Z,75.59
2018-04-13T04:56:30.869Z,75.58
2018-04-13T04:57:34.221Z,75.58
2018-04-13T04:58:37.435Z,75.61
2018-04-13T04:59:40.580Z,75.62
2018-04-13T05:00:43.666Z,75.58
2018-04-13T05:01:46.767Z,75.54
2018-04-13T05:02:49.850Z,75.48
2018-04-13T05:03:52.902Z,75.47
2018-04-13T05:04:56.012Z,75.49
2018-04-13T05:05:59.063Z,75.52
2018-04-13T05:07:02.107Z,75.50
2018-04-13T05:08:05.220Z,75.50
2018-04-13T05:09:08.262Z,75.50
2018-04-13T05:10:11.407Z,75.51
2018-04-13T05:11:14.492Z,75.49
2018-04-13T05:12:17.576Z,75.48
2018-04-13T05:13:20.704Z,75.51
2018-04-13T05:14:23.953Z,75.50
2018-04-13T05:15:27.049Z,75.48
2018-04-13T05:16:30.159Z,75.49
2018-04-13T05:17:33.234Z,75.54
2018-04-13T05:18:36.361Z,75.58
2018-04-13T05:19:39.498Z,75.61
2018-04-13T05:20:42.632Z,75.61
2018-04-13T05:21:45.703Z,75.60
2018-04-13T05:22:48.749Z,75.58
2018-04-13T05:23:51.862Z,75.62
2018-04-13T05:24:55.489Z,75.66
2018-04-13T05:25:58.586Z,75.69
2018-04-13T05:27:01.645Z,75.69
2018-04-13T05:28:04.706Z,75.72
2018-04-13T05:29:07.857Z,75.72
2018-04-13T05:30:11.026Z,75.73
2018-04-13T05:31:14.434Z,75.73
2018-04-13T05:32:17.732Z,75.73
2018-04-13T05:33:21.287Z,75.75
2018-04-13T05:34:24.470Z,75.76
2018-04-13T05:35:27.562Z,75.78
2018-04-13T05:36:30.647Z,75.83
2018-04-13T05:37:33.675Z,75.79
2018-04-13T05:38:37.022Z,75.80
2018-04-13T05:39:40.178Z,75.84
2018-04-13T05:40:43.279Z,75.82
2018-04-13T05:41:46.431Z,75.80
2018-04-13T05:42:49.626Z,75.79
2018-04-13T05:43:52.736Z,75.77
2018-04-13T05:44:55.809Z,75.74
2018-04-13T05:45:58.954Z,75.72
2018-04-13T05:47:02.000Z,75.66
2018-04-13T05:48:05.328Z,75.62
2018-04-13T05:49:08.399Z,75.59
2018-04-13T05:50:11.494Z,75.59
2018-04-13T05:51:14.939Z,75.55
2018-04-13T05:52:18.119Z,75.52
2018-04-13T05:53:21.294Z,75.47
2018-04-13T05:54:24.363Z,75.46
2018-04-13T05:55:27.539Z,75.45
2018-04-13T05:56:30.612Z,75.46
2018-04-13T05:57:33.685Z,75.51
2018-04-13T05:58:36.817Z,75.55
2018-04-13T05:59:39.861Z,75.56
2018-04-13T06:00:43.451Z,75.56
2018-04-13T06:01:46.789Z,75.60
2018-04-13T06:02:49.943Z,75.58
2018-04-13T06:03:53.026Z,75.64
2018-04-13T06:04:56.090Z,75.61
2018-04-13T06:05:59.219Z,75.63
2018-04-13T06:07:02.324Z,75.76
2018-04-13T06:08:05.387Z,75.84
2018-04-13T06:09:08.508Z,75.93
2018-04-13T06:10:11.631Z,75.93
2018-04-13T06:11:14.854Z,75.99
2018-04-13T06:12:17.900Z,76.09
2018-04-13T06:13:20.981Z,76.13
2018-04-13T06:14:23.998Z,76.18
2018-04-13T06:15:27.129Z,76.17
2018-04-13T06:16:30.245Z,76.19
2018-04-13T06:17:33.338Z,76.22
2018-04-13T06:18:36.458Z,76.20
2018-04-13T06:19:39.555Z,76.20
2018-04-13T06:20:42.691Z,76.09
2018-04-13T06:21:45.863Z,76.03
2018-04-13T06:22:48.908Z,75.86
2018-04-13T06:23:51.992Z,75.75
2018-04-13T06:24:55.039Z,75.66
2018-04-13T06:25:58.085Z,75.47
2018-04-13T06:27:01.257Z,75.34
2018-04-13T06:28:04.404Z,75.31
2018-04-13T06:29:07.515Z,75.22
2018-04-13T06:30:10.604Z,75.15
2018-04-13T06:31:13.686Z,75.08
2018-04-13T06:32:16.803Z,74.97
2018-04-13T06:33:19.900Z,74.88
2018-04-13T06:34:23.066Z,74.86
2018-04-13T06:35:26.272Z,74.87
2018-04-13T06:36:29.551Z,74.81
2018-04-13T06:37:32.963Z,74.78
2018-04-13T06:38:36.151Z,74.77
2018-04-13T06:39:39.261Z,74.72
2018-04-13T06:40:42.362Z,74.63
2018-04-13T06:41:45.422Z,74.53
2018-04-13T06:42:48.506Z,74.43
2018-04-13T06:43:51.574Z,74.38
2018-04-13T06:44:54.734Z,74.40
2018-04-13T06:45:57.833Z,74.46
2018-04-13T06:47:00.950Z,74.48
2018-04-13T06:48:04.061Z,74.48
2018-04-13T06:49:07.101Z,74.46
2018-04-13T06:50:10.158Z,74.47
2018-04-13T06:51:13.230Z,74.45
2018-04-13T06:52:16.473Z,74.43
2018-04-13T06:53:19.566Z,74.42
2018-04-13T06:54:22.694Z,74.38
2018-04-13T06:55:25.897Z,74.34
2018-04-13T06:56:28.989Z,74.32
2018-04-13T06:57:32.069Z,74.25
2018-04-13T06:58:35.141Z,74.19
2018-04-13T06:59:38.267Z,74.15
2018-04-13T07:00:41.370Z,74.09
2018-04-13T07:01:44.424Z,74.04
2018-04-13T07:02:47.462Z,73.96
2018-04-13T07:03:50.543Z,73.90
2018-04-13T07:04:53.599Z,73.83
2018-04-13T07:05:56.737Z,73.75
2018-04-13T07:06:59.918Z,73.71
2018-04-13T07:08:03.036Z,73.68
2018-04-13T07:09:06.143Z,73.62
2018-04-13T07:10:09.315Z,73.55
2018-04-13T07:11:12.409Z,73.49
2018-04-13T07:12:15.546Z,73.45
2018-04-13T07:13:18.667Z,73.41
2018-04-13T07:14:21.727Z,73.38
2018-04-13T07:15:25.128Z,73.35
2018-04-13T07:16:28.209Z,73.33
2018-04-13T07:17:31.280Z,73.30
2018-04-13T07:18:34.371Z,73.25
2018-04-13T07:19:37.520Z,73.22
2018-04-13T07:20:40.746Z,73.14
2018-04-13T07:21:43.792Z,73.07
2018-04-13T07:22:47.143Z,73.06
2018-04-13T07:23:50.952Z,73.07
2018-04-13T07:24:54.069Z,73.06
2018-04-13T07:25:57.301Z,73.00
2018-04-13T07:27:00.327Z,72.93
2018-04-13T07:28:03.370Z,72.84
2018-04-13T07:29:06.527Z,72.72
2018-04-13T07:30:09.663Z,72.66
2018-04-13T07:31:12.739Z,72.58
2018-04-13T07:32:15.783Z,72.51
2018-04-13T07:33:18.846Z,72.41
2018-04-13T07:34:22.629Z,72.37
2018-04-13T07:35:25.054Z,72.32
2018-04-13T07:36:28.123Z,72.31
2018-04-13T07:37:31.306Z,72.28
2018-04-13T07:38:34.295Z,72.23
2018-04-13T07:39:37.502Z,72.25
2018-04-13T07:40:40.532Z,72.27
2018-04-13T07:41:43.591Z,72.23
2018-04-13T07:42:47.090Z,72.22
2018-04-13T07:43:50.043Z,72.24
2018-04-13T07:44:53.557Z,72.23
2018-04-13T07:45:56.472Z,72.24
2018-04-13T07:46:59.522Z,72.24
2018-04-13T07:48:02.563Z,72.23
2018-04-13T07:49:05.676Z,72.21
2018-04-13T07:50:08.849Z,72.21
2018-04-13T07:51:12.218Z,72.21
2018-04-13T07:52:15.273Z,72.20
2018-04-13T07:53:19.173Z,72.19
2018-04-13T07:54:22.199Z,72.18
2018-04-13T07:55:25.270Z,72.17
2018-04-13T07:56:28.350Z,72.15
2018-04-13T07:57:31.406Z,72.11
2018-04-13T07:58:34.514Z,72.08
2018-04-13T07:59:37.589Z,72.11
2018-04-13T08:00:40.708Z,72.12
2018-04-13T08:01:43.862Z,72.15
2018-04-13T08:02:46.906Z,72.16
2018-04-13T08:03:50.177Z,72.18
2018-04-13T08:04:53.237Z,72.19
2018-04-13T08:05:56.296Z,72.19
2018-04-13T08:06:59.414Z,72.22
2018-04-13T08:08:02.471Z,72.22
2018-04-13T08:09:06.253Z,72.21
2018-04-13T08:10:09.320Z,72.19
2018-04-13T08:11:12.536Z,72.22
2018-04-13T08:12:15.626Z,72.28
2018-04-13T08:13:18.981Z,72.28
2018-04-13T08:14:21.762Z,72.27
2018-04-13T08:15:24.805Z,72.26
2018-04-13T08:16:27.889Z,72.23
2018-04-13T08:17:31.086Z,72.14
2018-04-13T08:18:34.137Z,72.03
2018-04-13T08:19:37.223Z,71.94
2018-04-13T08:20:40.570Z,71.78
2018-04-13T08:21:43.611Z,71.65
2018-04-13T08:22:46.792Z,71.46
2018-04-13T08:23:49.936Z,71.10
2018-04-13T08:24:53.101Z,70.78
2018-04-13T08:25:56.199Z,70.51
2018-04-13T08:26:59.290Z,70.23
2018-04-13T08:28:02.410Z,70.02
2018-04-13T08:29:05.696Z,69.82
2018-04-13T08:30:09.267Z,69.66
2018-04-13T08:31:12.316Z,69.54
2018-04-13T08:32:15.453Z,69.44
2018-04-13T08:33:18.519Z,69.38
2018-04-13T08:34:21.667Z,69.32
2018-04-13T08:35:24.729Z,69.30
2018-04-13T08:36:27.825Z,69.26
2018-04-13T08:37:31.003Z,69.23
2018-04-13T08:38:34.354Z,69.17
2018-04-13T08:39:37.566Z,69.12
2018-04-13T08:40:40.730Z,69.07
2018-04-13T08:41:43.944Z,68.98
2018-04-13T08:42:46.978Z,68.94
2018-04-13T08:43:50.102Z,68.89
2018-04-13T08:44:53.176Z,68.86
2018-04-13T08:45:56.244Z,68.85
2018-04-13T08:46:59.527Z,68.85
2018-04-13T08:48:02.915Z,68.85
2018-04-13T08:49:06.157Z,68.85
2018-04-13T08:50:09.119Z,68.85
2018-04-13T08:51:12.221Z,68.79
2018-04-13T08:52:15.306Z,68.76
2018-04-13T08:53:18.574Z,68.75
2018-04-13T08:54:21.756Z,68.80
2018-04-13T08:55:24.841Z,68.76
2018-04-13T08:56:27.932Z,68.72
2018-04-13T08:57:30.992Z,68.63
2018-04-13T08:58:34.035Z,68.61
2018-04-13T08:59:37.165Z,68.54
2018-04-13T09:00:40.248Z,68.54
2018-04-13T09:01:43.413Z,68.51
2018-04-13T09:02:46.567Z,68.50
2018-04-13T09:03:49.627Z,68.49
2018-04-13T09:04:52.867Z,68.44
2018-04-13T09:05:55.941Z,68.29
2018-04-13T09:06:59.032Z,68.20
2018-04-13T09:08:02.121Z,67.73
2018-04-13T09:09:05.244Z,67.04
2018-04-13T09:10:08.592Z,66.78
2018-04-13T09:11:11.702Z,66.53
2018-04-13T09:12:14.840Z,66.28
2018-04-13T09:13:17.882Z,66.05
2018-04-13T09:14:20.928Z,65.89
2018-04-13T09:15:24.051Z,65.56
2018-04-13T09:16:27.139Z,65.33
2018-04-13T09:17:30.201Z,64.85
2018-04-13T09:18:33.482Z,64.42
2018-04-13T09:19:36.656Z,63.82
2018-04-13T09:20:39.751Z,63.27
2018-04-13T09:21:42.873Z,62.78
2018-04-13T09:22:45.907Z,62.45
2018-04-13T09:23:48.942Z,62.21
2018-04-13T09:24:52.007Z,61.85
2018-04-13T09:25:55.146Z,61.44
2018-04-13T09:26:58.401Z,60.87
2018-04-13T09:28:01.724Z,60.41
2018-04-13T09:29:04.578Z,60.11
2018-04-13T09:30:08.076Z,59.93
2018-04-13T09:31:11.155Z,59.85
2018-04-13T09:32:14.305Z,59.35
2018-04-13T09:33:17.372Z,58.94
2018-04-13T09:34:20.454Z,58.65
2018-04-13T09:35:23.521Z,58.35
2018-04-13T09:36:26.610Z,58.25
2018-04-13T09:37:29.689Z,57.97
2018-04-13T09:38:32.739Z,57.83
2018-04-13T09:39:35.783Z,57.21
2018-04-13T09:40:38.824Z,56.92
2018-04-13T09:41:41.912Z,56.62
2018-04-13T09:42:45.006Z,56.46
2018-04-13T09:43:48.089Z,56.42
2018-04-13T09:44:51.353Z,56.37
2018-04-13T09:45:55.013Z,56.21
2018-04-13T09:46:58.155Z,56.18
2018-04-13T09:48:01.305Z,56.16
2018-04-13T09:49:04.351Z,56.13
2018-04-13T09:50:07.655Z,56.09
2018-04-13T09:51:10.750Z,55.71
2018-04-13T09:52:13.848Z,55.53
2018-04-13T09:53:16.947Z,55.34
2018-04-13T09:55:29.796Z,55.07
2018-04-13T09:56:33.000Z,54.98
2018-04-13T09:57:36.084Z,54.83
2018-04-13T09:58:39.141Z,54.78
2018-04-13T09:59:42.181Z,54.71
2018-04-13T10:00:45.363Z,54.72
2018-04-13T10:01:48.415Z,54.66
2018-04-13T10:02:57.048Z,54.81
2018-04-13T10:04:14.999Z,54.78
2018-04-13T10:05:18.071Z,54.98
2018-04-13T10:06:21.139Z,54.93
2018-04-13T10:07:24.234Z,54.96
2018-04-13T10:08:27.290Z,55.04
2018-04-13T10:09:30.396Z,55.12
2018-04-13T10:10:33.502Z,55.28
2018-04-13T10:11:36.568Z,55.40
2018-04-13T10:12:40.088Z,55.48
2018-04-13T10:13:43.237Z,55.48
2018-04-13T10:14:46.291Z,55.55
2018-04-13T10:15:49.345Z,55.61
2018-04-13T10:16:52.606Z,55.59
2018-04-13T10:17:55.876Z,55.66
2018-04-13T10:18:58.930Z,55.75
2018-04-13T10:20:02.024Z,55.74
2018-04-13T10:21:05.193Z,55.62
2018-04-13T10:22:08.332Z,55.50
2018-04-13T10:23:11.724Z,55.32
2018-04-13T10:24:14.918Z,55.22
2018-04-13T10:25:18.024Z,55.12
2018-04-13T10:26:21.290Z,55.04
2018-04-13T10:27:24.418Z,55.08
2018-04-13T10:28:27.577Z,55.14
2018-04-13T10:29:30.777Z,55.19
2018-04-13T10:30:33.870Z,55.25
2018-04-13T10:31:36.985Z,55.42
2018-04-13T10:32:40.137Z,55.54
2018-04-13T10:33:43.370Z,55.61
2018-04-13T10:34:46.552Z,55.72
2018-04-13T10:35:49.675Z,55.79
2018-04-13T10:36:52.751Z,55.83
2018-04-13T10:37:55.915Z,55.91
2018-04-13T10:38:58.958Z,55.97
2018-04-13T10:40:02.102Z,56.03
2018-04-13T10:41:05.199Z,56.09
2018-04-13T10:42:08.265Z,56.03
2018-04-13T10:43:11.392Z,56.06
2018-04-13T10:44:14.479Z,56.08
2018-04-13T10:45:17.730Z,55.96
2018-04-13T10:46:20.897Z,55.89
2018-04-13T10:47:23.951Z,55.79
2018-04-13T10:48:26.978Z,55.69
2018-04-13T10:49:30.048Z,55.64
2018-04-13T10:50:33.396Z,55.45
2018-04-13T10:51:36.474Z,55.39
2018-04-13T10:52:39.610Z,55.39
2018-04-13T10:53:42.689Z,55.29
2018-04-13T10:54:47.250Z,55.23
2018-04-13T10:55:50.396Z,55.19
2018-04-13T10:56:53.494Z,55.00
2018-04-13T10:57:56.518Z,54.94
2018-04-13T10:58:59.674Z,54.89
2018-04-13T11:00:02.728Z,54.93
2018-04-13T11:01:05.843Z,54.96
2018-04-13T11:02:08.930Z,54.97
2018-04-13T11:03:11.983Z,55.03
2018-04-13T11:04:15.229Z,54.98
2018-04-13T11:05:18.343Z,55.06
2018-04-13T11:06:21.412Z,55.09
2018-04-13T11:07:24.480Z,55.11
2018-04-13T11:08:27.578Z,55.08
2018-04-13T11:09:30.668Z,55.10
2018-04-13T11:10:33.716Z,55.03
2018-04-13T11:11:36.805Z,55.00
2018-04-13T11:12:39.845Z,54.95
2018-04-13T11:13:42.958Z,54.85
2018-04-13T11:14:46.220Z,54.78
2018-04-13T11:15:49.413Z,54.83
2018-04-13T11:16:52.523Z,54.84
2018-04-13T11:17:55.768Z,54.71
2018-04-13T11:18:58.886Z,54.69
2018-04-13T11:20:01.954Z,54.70
2018-04-13T11:21:05.033Z,54.61
2018-04-13T11:22:08.138Z,54.62
2018-04-13T11:23:11.239Z,54.68
2018-04-13T11:24:14.309Z,54.70
2018-04-13T11:25:17.395Z,54.70
2018-04-13T11:26:20.529Z,54.69
2018-04-13T11:27:23.821Z,54.68
2018-04-13T11:28:26.885Z,54.64
2018-04-13T11:29:29.977Z,54.58
2018-04-13T11:30:33.079Z,54.40
2018-04-13T11:31:36.180Z,54.38
2018-04-13T11:32:39.312Z,54.24
2018-04-13T11:33:42.427Z,54.31
2018-04-13T11:34:45.570Z,54.29
2018-04-13T11:35:48.639Z,54.27
2018-04-13T11:36:51.769Z,54.29
2018-04-13T11:37:54.842Z,54.32
2018-04-13T11:38:57.908Z,54.34
2018-04-13T11:40:00.982Z,54.32
2018-04-13T11:41:04.006Z,54.45
2018-04-13T11:42:07.074Z,54.48
2018-04-13T11:43:10.119Z,54.45
2018-04-13T11:44:13.198Z,54.50
2018-04-13T11:45:16.303Z,54.58
2018-04-13T11:46:19.362Z,54.56
2018-04-13T11:47:22.506Z,54.50
2018-04-13T11:48:25.594Z,54.45
2018-04-13T11:49:28.663Z,54.43
2018-04-13T11:50:31.719Z,54.43
2018-04-13T11:51:34.984Z,54.42
2018-04-13T11:52:38.042Z,54.33
2018-04-13T11:53:41.125Z,54.41
2018-04-13T11:54:44.198Z,54.45
2018-04-13T11:55:47.474Z,54.52
2018-04-13T11:56:50.663Z,54.53
2018-04-13T11:57:53.703Z,54.49
2018-04-13T11:58:56.774Z,54.41
2018-04-13T11:59:59.848Z,54.31
2018-04-13T12:01:02.956Z,54.29
2018-04-13T12:02:06.087Z,54.36
2018-04-13T12:03:09.137Z,54.18
2018-04-13T12:04:12.218Z,53.94
2018-04-13T12:05:15.313Z,53.86
2018-04-13T12:06:18.395Z,53.80
2018-04-13T12:07:21.653Z,53.78
2018-04-13T12:08:24.795Z,53.72
2018-04-13T12:09:27.963Z,53.62
2018-04-13T12:10:31.054Z,53.67
2018-04-13T12:11:34.093Z,53.51
2018-04-13T12:12:37.364Z,53.36
2018-04-13T12:13:40.433Z,53.22
2018-04-13T12:14:43.531Z,53.17
2018-04-13T12:15:46.924Z,53.18
2018-04-13T12:16:50.140Z,53.25
2018-04-13T12:17:53.224Z,53.14
2018-04-13T12:18:56.325Z,52.95
2018-04-13T12:19:59.575Z,52.80
2018-04-13T12:21:02.867Z,52.67
2018-04-13T12:22:06.006Z,52.51
2018-04-13T12:23:09.095Z,52.41
2018-04-13T12:24:12.203Z,52.36
2018-04-13T12:25:15.322Z,52.29
2018-04-13T12:26:18.430Z,52.19
2018-04-13T12:27:21.457Z,52.09
2018-04-13T12:28:24.579Z,52.07
2018-04-13T12:29:27.702Z,52.01
2018-04-13T12:30:30.887Z,51.98
2018-04-13T12:31:33.980Z,51.86
2018-04-13T12:32:37.043Z,51.73
2018-04-13T12:33:40.130Z,51.69
2018-04-13T12:34:43.165Z,51.63
2018-04-13T12:35:46.291Z,51.72
2018-04-13T12:36:49.366Z,51.55
2018-04-13T12:37:52.504Z,51.46
2018-04-13T12:38:55.539Z,51.41
2018-04-13T12:39:58.611Z,51.34
2018-04-13T12:41:01.710Z,51.35
2018-04-13T12:42:04.882Z,51.33
2018-04-13T12:43:07.955Z,51.38
2018-04-13T12:44:11.012Z,51.34
2018-04-13T12:45:14.201Z,51.27
2018-04-13T12:46:17.454Z,51.26
2018-04-13T12:47:20.595Z,51.30
2018-04-13T12:48:23.803Z,51.39
2018-04-13T12:49:26.841Z,51.29
2018-04-13T12:50:29.904Z,51.36
2018-04-13T12:51:33.063Z,51.40
2018-04-13T12:52:36.478Z,51.47
2018-04-13T12:53:39.505Z,51.50
2018-04-13T12:54:42.816Z,51.53
2018-04-13T12:55:45.846Z,51.57
2018-04-13T12:56:49.064Z,51.68
2018-04-13T12:57:52.174Z,51.73
2018-04-13T12:58:55.244Z,51.79
2018-04-13T12:59:58.407Z,51.87
2018-04-13T13:01:01.507Z,51.93
2018-04-13T13:02:04.696Z,51.93
2018-04-13T13:03:07.815Z,51.92
2018-04-13T13:04:10.899Z,51.67
2018-04-13T13:05:14.005Z,51.50
2018-04-13T13:06:17.099Z,51.37
2018-04-13T13:07:20.193Z,51.33
2018-04-13T13:08:23.240Z,51.26
2018-04-13T13:09:26.309Z,51.25
2018-04-13T13:10:29.371Z,51.28
2018-04-13T13:11:32.463Z,51.20
2018-04-13T13:12:35.694Z,51.31
2018-04-13T13:13:38.778Z,51.28
2018-04-13T13:14:42.047Z,51.20
2018-04-13T13:15:45.123Z,51.08
2018-04-13T13:16:48.246Z,51.06
2018-04-13T13:17:51.357Z,51.03
2018-04-13T13:18:54.534Z,50.95
2018-04-13T13:19:57.541Z,50.70
2018-04-13T13:21:00.590Z,50.65
2018-04-13T13:22:03.661Z,50.62
2018-04-13T13:23:06.758Z,50.62
2018-04-13T13:24:09.961Z,50.59
2018-04-13T13:25:12.994Z,50.73
2018-04-13T13:26:16.054Z,50.89
2018-04-13T13:27:19.141Z,51.05
2018-04-13T13:28:22.284Z,50.96
2018-04-13T13:29:25.350Z,50.99
2018-04-13T13:30:28.374Z,51.04
2018-04-13T13:31:31.530Z,50.91
2018-04-13T13:32:34.638Z,50.89
2018-04-13T13:33:37.833Z,50.82
2018-04-13T13:34:40.963Z,50.88
2018-04-13T13:35:44.024Z,50.88
2018-04-13T13:36:47.065Z,50.85